Argyll, United Kingdom
Current Conditions -  °F | °C
As of 4:20 PM on Sunday 23 Nov 2014 (Local Time) from EGPF Reporting Station
Broken Clouds Broken Clouds  
Wind Chill: 38°   Ceiling: 2900
Heat Index: 43°   Visibility: 6mi
Dew Point: 39°   Wind: 8mph
Humidity: 87%   Direction: 250°WSW
Pressure: 30"   Gusts: NA
Location:  56.05°N, 5.39°W
Report Text: EGPF 231620Z AUTO 25007KT 9999 BKN029 06/04 Q1016
Loading
Personal Weather Stations






























Interactive Weather Map New forecast layout! Learn more

10-Day Weather Forecast

Advertisements
Track Severe Weather on mobile